Siliana, Tunisia

4:06 AM CET on December 26, 2014 (GMT +0100)
Jendouba | Change Station
CLOSE
Current Station
Airport
Location: Jendouba,
Elevation: 472 ft
Nearby Weather Stations

Elev 472 ft 36.48 °N, 8.80 °E | Updated 6 minutes ago

Scattered Clouds
Scattered Clouds
54 °F
Feels Like 54 °F
N
7
Wind Variable Wind from WSW

Today
High -- | Low -- °F
--% Chance of Precip.
Yesterday
High -- | Low -- °F
Precip. -- in
7:31 AM 5:14 PM
Waxing Crescent, 21% visible
Pressure 30.24 in
Visibility 5.0 miles
Clouds Scattered Clouds 2000 ft
Dew Point 50 °F
Humidity 88%
Rainfall 0.00 in
Snow Depth Not available.
UV 0 out of 12
Pollen Not available.
Air Quality Not available.
Flu Activity Not available.
METAR DTTN 260300Z 24006KT 8000 SCT020 12/10 Q1024

More Conditions Fewer Conditions

Pressure 30.24 in
Visibility 5.0 miles
Clouds Scattered Clouds 2000 ft
Dew Point 50 °F
Humidity 88%
Rainfall 0.00 in
Snow Depth Not available.
UV 0 out of 12
Pollen Not available.
Air Quality Not available.
Flu Activity Not available.
METAR DTTN 260300Z 24006KT 8000 SCT020 12/10 Q1024

More Conditions Fewer Conditions

10-Day Weather Forecast

Almanac

Astronomy

Dec. 26, 2014 Rise Set
Actual Time
Civil Twilight
Nautical Twilight
Astronomical Twilight
Moon
Length of Visible Light
Length of Day
Tomorrow will be .
, % of the Moon is Illuminated

Today's Extremes

Country Highs Country Lows

Community

WunderPhotos

Upload Photos

1,780,525 photos uploaded!

WunderBlogs® & News

Nearby

Air Quality

  Air Quality AQ Index Pollutant
Not available.

Snow Depth

Station Depth Elevation

Earthquake Activity

City Distance Mag. Time & Date
Minimum magnitude displayed is 2.5.

Coastal Water Temperatures

Place Temperature

Nearby Weather Stations